Time;durP1;ratioP1;P1;durP2;ratioP2;P2;SDS_P1;SDS_P2;PMS_P1;PMS_P2;Temp;Humidity;BMP_temperature;BMP_pressure;BME280_temperature;BME280_humidity;BME280_pressure;Samples;Min_cycle;Max_cycle;Signal;HPM_P1;HPM_P2
2021/04/29 00:01:32;;;;;;;3.83;2.33;;;;;;;5.73;70.05;99686.50;6189645;23;20004;-77
2021/04/29 00:04:18;;;;;;;2.20;2.10;;;;;;;5.92;70.74;99719.56;6161649;23;20087;-77
2021/04/29 00:06:44;;;;;;;3.10;2.40;;;;;;;5.87;70.58;99718.66;6165586;23;20343;-77
2021/04/29 00:09:13;;;;;;;2.47;2.20;;;;;;;5.95;70.57;99729.09;6163426;23;20032;-76
2021/04/29 00:11:39;;;;;;;1.85;1.75;;;;;;;5.99;70.53;99732.19;6163124;23;20436;-77
2021/04/29 00:14:10;;;;;;;2.47;2.28;;;;;;;5.79;69.87;99695.53;6161948;23;20004;-75
2021/04/29 00:16:54;;;;;;;4.45;1.88;;;;;;;5.94;70.17;99712.00;6165766;23;20011;-76
2021/04/29 00:19:29;;;;;;;2.08;1.88;;;;;;;5.98;70.05;99717.75;6184793;23;20008;-77
2021/04/29 00:21:55;;;;;;;9.68;2.42;;;;;;;6.10;69.60;99740.19;6164948;23;20057;-77
2021/04/29 00:24:23;;;;;;;1.88;1.75;;;;;;;5.90;69.54;99712.78;6166938;23;19989;-77
2021/04/29 00:26:54;;;;;;;2.05;1.95;;;;;;;6.04;69.90;99741.19;6164407;23;20028;-77
2021/04/29 00:29:19;;;;;;;2.47;2.13;;;;;;;5.93;69.19;99718.50;6166975;23;20007;-76
2021/04/29 00:31:48;;;;;;;2.45;1.77;;;;;;;6.05;69.42;99740.13;6166360;23;20095;-75
2021/04/29 00:34:20;;;;;;;1.20;1.15;;;;;;;5.97;69.46;99729.69;6165588;23;20015;-77
2021/04/29 00:36:50;;;;;;;2.70;1.80;;;;;;;5.90;69.22;99721.72;6165821;23;20436;-77
2021/04/29 00:39:29;;;;;;;;;;;;;;;;;;;;;
2021/04/29 00:41:54;;;;;;;2.13;1.42;;;;;;;5.67;69.33;99709.22;6180697;23;20032;-77
2021/04/29 00:44:23;;;;;;;1.38;1.27;;;;;;;5.80;68.74;99735.16;6166736;23;20001;-79
2021/04/29 00:46:52;;;;;;;5.10;1.00;;;;;;;5.56;68.81;99707.44;6166535;23;20012;-77
2021/04/29 00:49:20;;;;;;;2.03;1.52;;;;;;;5.47;69.08;99704.31;6166163;23;20130;-76
2021/04/29 00:52:06;;;;;;;2.42;1.30;;;;;;;5.57;68.60;99730.78;6160838;23;20005;-78
2021/04/29 00:54:35;;;;;;;;;;;;;;;5.54;68.54;99731.28;6155176;23;20005;-77
2021/04/29 00:57:34;;;;;;;;;;;;;;;;;;;;;
2021/04/29 01:00:21;;;;;;;3.10;2.05;;;;;;;5.29;68.21;99724.41;6160821;23;20039;-76
2021/04/29 01:03:17;;;;;;;2.25;2.05;;;;;;;5.19;68.61;99724.25;6171043;23;20520;-75
2021/04/29 01:05:56;;;;;;;2.67;1.88;;;;;;;5.18;68.58;99730.72;6163299;23;20012;-76
2021/04/29 01:08:40;;;;;;;5.97;1.70;;;;;;;5.06;68.19;99722.69;6165802;23;20021;-76
2021/04/29 01:11:39;;;;;;;;;;;;;;;;;;;;;
2021/04/29 01:18:07;;;;;;;1.98;1.85;;;;;;;4.83;68.89;99729.09;6115551;23;20054;-77
2021/04/29 01:21:17;;;;;;;;;;;;;;;;;;;;;
2021/04/29 01:27:37;;;;;;;2.88;1.90;;;;;;;4.24;69.73;99681.47;6151233;23;20028;-76
2021/04/29 01:31:00;;;;;;;;;;;;;;;;;;;;;
2021/04/29 01:34:07;;;;;;;;;;;;;;;;;;;;;
2021/04/29 01:41:37;;;;;;;;;;;;;;;;;;;;;
2021/04/29 01:44:32;;;;;;;5.47;1.70;;;;;;;4.10;70.30;99718.81;6173984;23;20371;-75
2021/04/29 01:47:21;;;;;;;2.22;1.65;;;;;;;3.86;70.31;99707.28;6165575;23;20019;-75
2021/04/29 01:49:49;;;;;;;4.88;1.48;;;;;;;3.79;70.58;99711.97;6189713;23;20032;-76
2021/04/29 01:52:18;;;;;;;1.60;1.38;;;;;;;3.88;70.35;99732.19;6164143;23;20099;-76
2021/04/29 01:54:53;;;;;;;1.17;0.90;;;;;;;3.78;70.30;99737.38;6165168;23;20080;-77
2021/04/29 02:00:34;;;;;;;2.72;1.58;;;;;;;3.86;70.76;99755.94;6124949;23;20044;-75
2021/04/29 02:03:00;;;;;;;1.38;1.27;;;;;;;3.70;70.90;99735.06;6122548;23;19998;-76
2021/04/29 02:05:28;;;;;;;2.58;1.13;;;;;;;3.83;70.62;99756.44;6130750;23;20018;-76
2021/04/29 02:08:07;;;;;;;;;;;;;;;;;;;;;
2021/04/29 02:10:33;;;;;;;1.70;1.60;;;;;;;3.65;70.37;99733.03;6141707;23;20021;-76
2021/04/29 02:13:12;;;;;;;3.83;0.88;;;;;;;3.76;71.24;99755.75;6186995;23;19997;-76
2021/04/29 02:16:01;;;;;;;1.67;1.00;;;;;;;3.69;70.77;99749.63;6146851;23;20009;-84
2021/04/29 02:18:31;;;;;;;5.97;1.40;;;;;;;3.63;70.79;99735.97;6196290;23;19993;-81
2021/04/29 02:21:18;;;;;;;;;;;;;;;;;;;;;
2021/04/29 02:23:49;;;;;;;2.15;1.50;;;;;;;3.52;70.50;99728.72;6173142;23;20032;-80
2021/04/29 02:26:37;;;;;;;3.78;0.95;;;;;;;3.41;71.33;99716.03;6161916;23;20008;-79
2021/04/29 02:29:35;;;;;;;3.10;0.73;;;;;;;3.35;70.99;99722.41;6169354;23;20004;-81
2021/04/29 02:32:13;;;;;;;;;;;;;;;;;;;;;
2021/04/29 02:34:50;;;;;;;2.55;0.80;;;;;;;3.41;70.81;99751.19;6194734;23;20372;-79
2021/04/29 02:37:23;;;;;;;0.90;0.90;;;;;;;3.36;71.36;99745.63;6162739;23;20001;-78
2021/04/29 02:39:51;;;;;;;0.93;0.90;;;;;;;3.30;70.42;99732.03;6143550;23;20005;-78
2021/04/29 02:42:32;;;;;;;;;;;;;;;;;;;;;
2021/04/29 02:45:13;;;;;;;;;;;;;;;;;;;;;
2021/04/29 02:47:47;;;;;;;2.15;1.00;;;;;;;3.49;70.96;99753.53;6168170;23;20032;-78
2021/04/29 02:50:18;;;;;;;5.40;1.00;;;;;;;3.48;70.86;99741.88;6168599;23;20040;-79
2021/04/29 02:52:59;;;;;;;;;;;;;;;;;;;;;
2021/04/29 02:55:28;;;;;;;7.95;1.92;;;;;;;3.69;71.41;99755.84;6201260;23;20008;-80
2021/04/29 02:58:10;;;;;;;2.45;1.30;;;;;;;3.47;71.02;99731.31;6170706;23;20023;-80
2021/04/29 03:00:54;;;;;;;2.03;1.50;;;;;;;3.52;71.07;99753.06;6166821;23;20052;-80
2021/04/29 03:03:48;;;;;;;1.00;0.90;;;;;;;3.41;70.50;99743.06;6166260;23;20001;-79
2021/04/29 03:06:21;;;;;;;1.17;1.05;;;;;;;3.45;71.19;99742.34;6166748;23;20001;-79
2021/04/29 03:08:53;;;;;;;2.28;0.93;;;;;;;3.54;71.21;99756.34;6163658;23;20031;-79
2021/04/29 03:11:26;;;;;;;1.45;1.08;;;;;;;3.41;70.84;99726.84;6166549;23;20091;-79
2021/04/29 03:14:20;;;;;;;1.20;1.10;;;;;;;3.69;70.90;99771.25;6166919;23;20103;-78
2021/04/29 03:16:48;;;;;;;1.83;1.15;;;;;;;3.49;70.52;99746.25;6191919;23;20000;-79
2021/04/29 03:19:16;;;;;;;1.13;1.02;;;;;;;3.67;70.67;99769.59;6165734;23;20427;-78
2021/04/29 03:21:44;;;;;;;1.30;1.10;;;;;;;3.71;70.98;99771.84;6141564;23;20079;-79
2021/04/29 03:24:14;;;;;;;0.55;0.55;;;;;;;3.55;70.41;99755.28;6192738;23;20447;-79
2021/04/29 03:26:52;;;;;;;;;;;;;;;;;;;;;
2021/04/29 03:29:21;;;;;;;5.03;1.65;;;;;;;3.48;70.53;99741.06;6167907;23;20404;-80
2021/04/29 03:31:49;;;;;;;1.95;0.95;;;;;;;3.67;70.78;99785.84;6193023;23;20024;-78
2021/04/29 03:34:45;;;;;;;1.58;0.95;;;;;;;3.50;69.99;99755.16;6172272;23;20452;-79
2021/04/29 03:37:11;;;;;;;1.73;1.10;;;;;;;3.50;70.57;99763.28;6175899;23;20001;-78
2021/04/29 03:39:50;;;;;;;1.27;0.98;;;;;;;3.59;70.42;99783.50;6168329;23;20004;-80
2021/04/29 03:42:18;;;;;;;1.13;0.80;;;;;;;3.55;70.38;99792.28;6150651;23;20001;-80
2021/04/29 03:44:53;;;;;;;0.60;0.60;;;;;;;3.41;69.97;99772.81;6166986;23;20009;-80
2021/04/29 03:48:03;;;;;;;1.30;1.20;;;;;;;3.21;69.82;99746.91;6165665;23;20013;-79
2021/04/29 03:50:48;;;;;;;1.80;1.10;;;;;;;3.17;70.72;99763.84;6169374;23;20009;-78
2021/04/29 03:53:23;;;;;;;3.28;1.00;;;;;;;3.22;70.05;99781.00;6167460;23;20044;-80
2021/04/29 03:56:03;;;;;;;;;;;;;;;;;;;;;
2021/04/29 03:58:29;;;;;;;0.50;0.50;;;;;;;3.07;70.23;99791.44;6169536;23;20132;-79
2021/04/29 04:00:58;;;;;;;2.78;0.75;;;;;;;3.12;71.25;99805.06;6187581;23;20020;-79
2021/04/29 04:03:30;;;;;;;1.75;0.82;;;;;;;3.00;70.76;99790.72;6167451;23;20067;-78
2021/04/29 04:06:08;;;;;;;0.60;0.60;;;;;;;3.02;70.40;99794.00;6192601;23;19997;-79
2021/04/29 04:08:44;;;;;;;0.57;0.50;;;;;;;3.07;70.52;99805.78;6193018;23;20004;-80
2021/04/29 04:11:09;;;;;;;0.95;0.95;;;;;;;2.87;70.80;99789.84;6167009;23;20001;-79
2021/04/29 04:16:42;;;;;;;0.60;0.60;;;;;;;2.91;71.11;99807.25;6169720;23;20013;-78
2021/04/29 04:19:24;;;;;;;;;;;;;;;;;;;;;
2021/04/29 04:22:18;;;;;;;1.85;0.80;;;;;;;2.62;70.42;99774.63;6190923;23;20032;-79
2021/04/29 04:25:15;;;;;;;0.50;0.50;;;;;;;2.80;71.13;99808.03;6141794;23;20076;-79
2021/04/29 04:27:42;;;;;;;;;;;;;;;2.84;70.07;99825.44;6179064;23;20016;-78
2021/04/29 04:30:36;;;;;;;;;;;;;;;;;;;;;
2021/04/29 04:33:02;;;;;;;6.03;0.75;;;;;;;2.57;71.05;99793.41;6190088;23;20037;-78
2021/04/29 04:38:22;;;;;;;1.67;0.90;;;;;;;2.70;70.23;99819.41;6167333;23;20003;-80
2021/04/29 04:40:48;;;;;;;1.65;1.08;;;;;;;2.46;70.80;99780.69;6173074;23;20017;-80
2021/04/29 04:43:23;;;;;;;2.10;1.10;;;;;;;2.57;71.94;99798.81;6163479;23;19987;-81
2021/04/29 04:46:01;;;;;;;;;;;;;;;;;;;;;
2021/04/29 04:48:27;;;;;;;1.13;0.85;;;;;;;2.70;70.49;99819.41;6193842;23;20021;-79
2021/04/29 04:50:56;;;;;;;0.95;0.95;;;;;;;2.69;70.69;99814.25;6142019;23;20020;-80
2021/04/29 04:53:40;;;;;;;2.63;1.10;;;;;;;2.53;71.05;99797.63;6167200;23;20009;-78
2021/04/29 04:56:17;;;;;;;1.00;1.00;;;;;;;2.50;71.83;99792.69;6163836;23;20000;-78
2021/04/29 04:59:00;;;;;;;;;;;;;;;;;;;;;
2021/04/29 05:01:32;;;;;;;1.80;1.55;;;;;;;2.79;71.17;99838.81;6191182;23;20028;-78
2021/04/29 05:04:03;;;;;;;2.03;0.93;;;;;;;2.77;71.26;99835.50;6170028;23;20005;-78
2021/04/29 05:06:58;;;;;;;0.75;0.75;;;;;;;2.74;70.71;99835.97;6168741;23;20031;-78
2021/04/29 05:09:28;;;;;;;0.88;0.88;;;;;;;2.51;71.27;99799.72;6165124;23;20016;-78
2021/04/29 05:12:10;;;;;;;2.17;1.10;;;;;;;2.67;71.21;99829.81;6162622;23;20007;-78
2021/04/29 05:14:53;;;;;;;1.30;1.20;;;;;;;2.64;71.48;99822.19;6172617;23;20544;-79
2021/04/29 05:17:18;;;;;;;1.38;1.27;;;;;;;2.72;70.80;99838.91;6159420;23;20004;-76
2021/04/29 05:19:44;;;;;;;2.75;1.50;;;;;;;2.78;71.17;99842.56;6163556;23;20071;-76
2021/04/29 05:22:13;;;;;;;1.50;1.40;;;;;;;2.86;70.69;99842.25;6138035;23;20363;-75
2021/04/29 05:24:38;;;;;;;2.42;1.48;;;;;;;2.89;70.62;99854.44;6166202;23;20466;-76
2021/04/29 05:27:04;;;;;;;0.93;0.93;;;;;;;2.79;70.83;99838.81;6194028;23;20009;-76
2021/04/29 05:29:30;;;;;;;1.58;1.20;;;;;;;2.76;71.53;99836.53;6188595;23;20004;-75
2021/04/29 05:31:55;;;;;;;2.15;1.33;;;;;;;2.94;71.73;99862.69;6141172;23;20099;-76
2021/04/29 05:34:21;;;;;;;5.53;2.08;;;;;;;2.78;70.89;99837.16;6115949;23;20332;-75
2021/04/29 05:36:52;;;;;;;1.48;1.42;;;;;;;3.00;71.50;99866.38;6189340;23;20024;-77
2021/04/29 05:39:20;;;;;;;2.10;2.00;;;;;;;2.92;71.42;99844.03;6139924;23;20009;-76
2021/04/29 05:41:45;;;;;;;1.90;1.80;;;;;;;3.01;70.96;99857.19;6190811;23;20383;-75
2021/04/29 05:44:11;;;;;;;2.45;1.55;;;;;;;3.07;71.63;99850.88;6114661;23;20061;-76
2021/04/29 05:46:47;;;;;;;1.95;1.85;;;;;;;3.06;71.08;99841.13;6169210;23;20035;-76
2021/04/29 05:49:12;;;;;;;1.27;1.25;;;;;;;3.11;71.09;99844.78;6160184;23;20092;-76
2021/04/29 05:52:03;;;;;;;1.25;1.25;;;;;;;3.24;71.36;99851.88;6164039;23;20024;-77
2021/04/29 05:54:29;;;;;;;0.98;0.98;;;;;;;3.19;71.36;99857.13;6194135;23;20001;-78
2021/04/29 05:57:08;;;;;;;;;;;;;;;;;;;;;
2021/04/29 06:00:17;;;;;;;0.80;0.80;;;;;;;3.37;71.62;99887.84;6191117;23;20043;-77
2021/04/29 06:03:22;;;;;;;;;;;;;;;;;;;;;
2021/04/29 06:06:11;;;;;;;1.60;1.50;;;;;;;3.40;71.02;99881.97;6190560;23;20394;-75
2021/04/29 06:08:47;;;;;;;1.50;1.40;;;;;;;3.58;70.83;99898.13;6179958;23;20001;-77
2021/04/29 06:11:15;;;;;;;1.98;1.88;;;;;;;3.55;71.28;99879.66;6164019;23;20008;-76
2021/04/29 06:13:42;;;;;;;1.98;1.88;;;;;;;3.71;71.08;99898.94;6182084;23;20025;-71
2021/04/29 06:16:08;;;;;;;9.57;2.10;;;;;;;3.75;70.67;99895.56;6186469;23;20013;-73
2021/04/29 06:18:43;;;;;;;2.58;2.47;;;;;;;3.76;71.13;99897.19;6158271;23;20043;-74
2021/04/29 06:21:09;;;;;;;1.98;1.88;;;;;;;3.94;70.71;99908.94;6163773;23;20005;-74
2021/04/29 06:23:37;;;;;;;1.90;1.80;;;;;;;3.96;70.76;99890.63;6159862;23;20005;-74
2021/04/29 06:26:03;;;;;;;2.70;2.60;;;;;;;3.98;70.53;99896.59;6157297;23;20136;-74
2021/04/29 06:28:31;;;;;;;6.15;2.45;;;;;;;3.90;70.23;99878.00;6164089;23;20000;-76
2021/04/29 06:31:06;;;;;;;2.75;2.55;;;;;;;4.04;70.85;99882.13;6163899;23;20020;-75
2021/04/29 06:33:32;;;;;;;;;;;;;;;4.23;70.55;99904.47;6164374;23;20021;-76
2021/04/29 06:35:57;;;;;;;;;;;;;;;4.30;70.49;99907.06;6163542;23;19930;-77
2021/04/29 06:38:23;;;;;;;3.17;2.70;;;;;;;4.26;70.23;99892.34;6168565;23;19912;-75
2021/04/29 06:40:59;;;;;;;9.88;3.33;;;;;;;4.43;70.25;99911.41;6167101;23;20005;-77
2021/04/29 06:43:34;;;;;;;6.07;3.03;;;;;;;4.44;70.25;99913.03;6143427;23;20065;-75
2021/04/29 06:46:11;;;;;;;2.78;2.47;;;;;;;4.44;70.16;99913.03;6194744;23;20005;-76
2021/04/29 06:48:47;;;;;;;;;;;;;;;;;;;;;
2021/04/29 06:51:29;;;;;;;;;;;;;;;;;;;;;
2021/04/29 06:54:02;;;;;;;2.83;2.72;;;;;;;4.55;70.18;99909.50;6186517;23;20031;-75
2021/04/29 06:56:59;;;;;;;3.42;3.22;;;;;;;4.54;70.22;99897.00;6191260;23;20082;-77
2021/04/29 06:59:33;;;;;;;7.88;3.33;;;;;;;4.71;69.94;99913.34;6181535;23;19989;-82
2021/04/29 07:02:04;;;;;;;7.18;3.97;;;;;;;4.92;70.03;99935.44;6175034;23;20004;-78
2021/04/29 07:04:32;;;;;;;3.30;3.10;;;;;;;5.02;69.74;99936.47;6194705;23;20013;-78
2021/04/29 07:07:46;;;;;;;;;;;;;;;;;;;;;
2021/04/29 07:10:29;;;;;;;3.63;3.42;;;;;;;5.02;69.52;99931.03;6113891;23;20129;-78
2021/04/29 07:13:14;;;;;;;3.53;3.33;;;;;;;5.30;69.64;99947.53;6171659;23;20005;-82
2021/04/29 07:15:40;;;;;;;2.80;2.63;;;;;;;5.22;69.69;99927.06;6172987;23;20016;-81
2021/04/29 07:18:16;;;;;;;;;;;;;;;;;;;;;
2021/04/29 07:20:46;;;;;;;7.05;3.05;;;;;;;5.32;69.02;99919.13;6201518;23;20005;-83
2021/04/29 07:23:13;;;;;;;3.03;2.83;;;;;;;5.61;69.34;99946.22;6149006;23;20016;-82
2021/04/29 07:25:52;;;;;;;;;;;;;;;;;;;;;
2021/04/29 07:28:20;;;;;;;3.58;3.22;;;;;;;5.66;69.20;99940.84;6180615;23;20005;-82
2021/04/29 07:31:15;;;;;;;4.13;3.72;;;;;;;5.73;69.34;99927.97;6177063;23;20009;-81
2021/04/29 07:33:47;;;;;;;4.50;2.65;;;;;;;5.83;69.03;99926.50;6178193;23;20013;-82
2021/04/29 07:36:16;;;;;;;2.70;2.58;;;;;;;5.94;68.74;99923.69;6177164;23;19996;-82
2021/04/29 07:39:15;;;;;;;4.95;2.72;;;;;;;6.32;69.04;99961.19;6152814;23;20029;-80
2021/04/29 07:42:01;;;;;;;3.95;3.55;;;;;;;6.26;68.69;99922.28;6177420;23;20012;-82
2021/04/29 07:44:30;;;;;;;3.42;3.20;;;;;;;6.52;68.01;99944.38;6150163;23;20013;-82
2021/04/29 07:47:33;;;;;;;3.28;3.05;;;;;;;6.70;68.44;99938.66;6169529;23;20032;-83
2021/04/29 07:50:43;;;;;;;4.10;3.80;;;;;;;6.93;67.84;99947.59;6169767;23;20301;-84
2021/04/29 07:53:12;;;;;;;3.97;3.78;;;;;;;6.90;67.02;99934.53;6106436;23;20010;-82
2021/04/29 07:55:43;;;;;;;3.75;3.45;;;;;;;7.05;67.14;99940.13;6160243;23;20061;-81
2021/04/29 07:58:53;;;;;;;2.95;2.75;;;;;;;7.37;67.75;99958.44;6168077;23;20084;-82
2021/04/29 08:01:10;;;;;;;5.60;3.40;;;;;;;7.58;66.50;99964.06;6167803;23;20016;-83
2021/04/29 08:03:38;;;;;;;3.20;3.00;;;;;;;7.59;66.29;99938.50;6147295;23;20001;-83
2021/04/29 08:06:14;;;;;;;2.75;2.40;;;;;;;7.89;65.67;99962.47;6173170;23;20028;-82
2021/04/29 08:08:53;;;;;;;;;;;;;;;;;;;;;
2021/04/29 08:11:22;;;;;;;3.17;2.97;;;;;;;8.10;64.44;99957.97;6200439;23;19993;-83
2021/04/29 08:14:04;;;;;;;3.35;3.05;;;;;;;8.04;63.80;99945.41;6180117;23;20005;-83
2021/04/29 08:16:32;;;;;;;2.47;2.28;;;;;;;8.24;64.72;99954.84;6182009;23;20017;-83
2021/04/29 08:19:00;;;;;;;3.05;2.85;;;;;;;8.34;63.49;99944.00;6183258;23;19985;-83
2021/04/29 08:21:29;;;;;;;2.75;2.63;;;;;;;8.71;63.42;99986.75;6131987;23;20550;-83
2021/04/29 08:24:04;;;;;;;2.30;2.20;;;;;;;8.90;63.31;99979.75;6155329;23;20013;-82
2021/04/29 08:26:30;;;;;;;2.08;1.88;;;;;;;8.84;62.51;99956.28;6154829;23;20020;-81
2021/04/29 08:29:24;;;;;;;2.20;2.10;;;;;;;9.10;62.43;99961.84;6180917;23;20024;-82
2021/04/29 08:32:05;;;;;;;;;;;;;;;;;;;;;
2021/04/29 08:34:48;;;;;;;;;;;;;;;;;;;;;
2021/04/29 08:37:17;;;;;;;2.28;2.08;;;;;;;9.45;61.42;99979.41;6206258;23;20013;-85
2021/04/29 08:39:46;;;;;;;2.28;2.03;;;;;;;9.61;60.65;99988.47;6180567;23;20009;-84
2021/04/29 08:42:36;;;;;;;;;;;;;;;;;;;;;
2021/04/29 08:45:10;;;;;;;2.17;2.08;;;;;;;9.72;59.42;99978.34;6163258;23;20016;-82
2021/04/29 08:47:39;;;;;;;2.05;1.95;;;;;;;9.68;58.78;99955.41;6154601;23;20073;-83
2021/04/29 08:50:07;;;;;;;2.72;2.63;;;;;;;9.74;58.69;99957.09;6177513;23;20001;-83
2021/04/29 08:52:42;;;;;;;2.30;2.10;;;;;;;9.97;57.27;99985.75;6206130;23;20057;-82
2021/04/29 08:55:24;;;;;;;7.38;2.53;;;;;;;9.92;57.56;99956.53;6181733;23;20009;-79
2021/04/29 08:57:53;;;;;;;2.05;1.95;;;;;;;10.13;57.02;99959.25;6177916;23;20003;-78
2021/04/29 09:00:21;;;;;;;1.70;1.60;;;;;;;10.29;57.08;99960.06;6202684;23;20012;-80
2021/04/29 09:02:48;;;;;;;2.00;1.83;;;;;;;10.69;56.54;99980.25;6177960;23;20065;-79
2021/04/29 09:05:30;;;;;;;;;;;;;;;;;;;;;
2021/04/29 09:08:00;;;;;;;1.50;1.40;;;;;;;11.02;55.58;99990.81;6200720;23;20024;-80
2021/04/29 09:10:55;;;;;;;1.58;1.48;;;;;;;11.06;55.02;99975.47;6173087;23;20025;-80
2021/04/29 09:13:43;;;;;;;1.90;1.80;;;;;;;11.46;53.70;99992.78;6195735;23;20001;-79
2021/04/29 09:16:26;;;;;;;;;;;;;;;;;;;;;
2021/04/29 09:19:07;;;;;;;1.80;1.70;;;;;;;11.80;53.50;99986.56;6202029;23;20020;-81
2021/04/29 09:21:42;;;;;;;1.60;1.58;;;;;;;12.37;52.64;99993.22;6179058;23;19996;-81
2021/04/29 09:24:39;;;;;;;;;;;;;;;;;;;;;
2021/04/29 09:27:23;;;;;;;1.05;1.05;;;;;;;14.54;51.20;100009.56;6207144;23;20258;-81
2021/04/29 09:30:00;;;;;;;1.48;1.38;;;;;;;15.30;49.55;100009.22;6156024;23;20008;-82
2021/04/29 09:32:32;;;;;;;3.97;1.80;;;;;;;16.01;48.37;100000.50;6178170;23;20036;-79
2021/04/29 09:34:59;;;;;;;2.63;1.30;;;;;;;17.07;45.89;100019.31;6179091;23;19985;-80
2021/04/29 09:37:26;;;;;;;0.50;0.50;;;;;;;18.21;46.39;100000.91;6181516;23;20035;-83
2021/04/29 09:40:05;;;;;;;1.48;0.90;;;;;;;19.50;41.54;100012.97;6177079;23;20018;-82
2021/04/29 09:42:37;;;;;;;0.50;0.50;;;;;;;20.74;41.08;100033.78;6170270;23;20088;-80
2021/04/29 09:45:28;;;;;;;;;;;;;;;;;;;;;
2021/04/29 09:48:19;;;;;;;0.40;0.40;;;;;;;23.40;35.17;100040.72;6200977;23;20001;-82
2021/04/29 09:51:07;;;;;;;;;;;;;;;;;;;;;
2021/04/29 09:54:02;;;;;;;0.55;0.35;;;;;;;23.10;30.88;100055.16;6197631;23;20032;-80
2021/04/29 09:56:27;;;;;;;0.35;0.35;;;;;;;23.09;31.33;100031.19;6169506;23;20374;-81
2021/04/29 09:59:02;;;;;;;1.50;0.50;;;;;;;22.90;29.30;100050.63;6193023;23;20005;-81
2021/04/29 10:01:45;;;;;;;;;;;;;;;22.41;27.93;100051.69;6124150;23;20013;-81
2021/04/29 10:04:14;;;;;;;0.70;0.47;;;;;;;20.91;29.19;100022.47;6149432;23;19915;-83
2021/04/29 10:06:39;;;;;;;0.70;0.70;;;;;;;20.08;30.13;100037.34;6170396;23;20449;-82
2021/04/29 10:09:05;;;;;;;1.05;0.68;;;;;;;19.16;30.30;100023.91;6167859;23;20068;-82
2021/04/29 10:11:40;;;;;;;0.73;0.60;;;;;;;18.53;30.65;100051.31;6159860;23;20005;-81
2021/04/29 10:14:08;;;;;;;1.70;0.93;;;;;;;18.28;32.25;100034.44;6166235;23;20011;-80
2021/04/29 10:16:37;;;;;;;0.57;0.43;;;;;;;18.77;33.02;100049.97;6178462;23;20009;-79
2021/04/29 10:19:02;;;;;;;2.15;0.60;;;;;;;18.98;32.17;100039.81;6177826;23;20040;-80
2021/04/29 10:21:43;;;;;;;0.85;0.40;;;;;;;18.83;31.81;100046.66;6203965;23;19997;-79
2021/04/29 10:24:26;;;;;;;2.83;1.00;;;;;;;18.42;31.36;100037.00;6147178;23;20013;-79
2021/04/29 10:27:06;;;;;;;0.82;0.80;;;;;;;18.02;32.22;100050.22;6164552;23;20420;-79
2021/04/29 10:29:43;;;;;;;;;;;;;;;;;;;;;
2021/04/29 10:32:15;;;;;;;0.63;0.50;;;;;;;17.11;33.33;100034.06;6179054;23;20025;-79
2021/04/29 10:34:47;;;;;;;1.70;0.80;;;;;;;16.91;33.88;100036.28;6176360;23;19996;-78
2021/04/29 10:37:33;;;;;;;0.45;0.45;;;;;;;17.14;34.69;100019.63;6175650;23;20012;-80
2021/04/29 10:40:11;;;;;;;;;;;;;;;;;;;;;
2021/04/29 10:42:45;;;;;;;0.40;0.40;;;;;;;17.61;33.53;100044.78;6196638;23;20035;-81
2021/04/29 10:45:14;;;;;;;1.95;0.85;;;;;;;17.33;31.91;100051.72;6166119;23;20504;-81
2021/04/29 10:47:40;;;;;;;3.35;1.17;;;;;;;16.79;32.25;100060.88;6173171;23;20057;-80
2021/04/29 10:50:10;;;;;;;1.10;1.00;;;;;;;16.29;32.93;100058.28;6170148;23;20008;-81
2021/04/29 10:52:52;;;;;;;0.85;0.85;;;;;;;15.67;33.09;100056.94;6170877;23;19991;-82
2021/04/29 10:55:25;;;;;;;0.82;0.82;;;;;;;15.26;34.16;100052.25;6169487;23;20020;-81
2021/04/29 10:57:51;;;;;;;1.70;1.33;;;;;;;14.93;35.02;100071.63;6172611;23;20004;-81
2021/04/29 11:00:18;;;;;;;1.20;1.10;;;;;;;14.52;35.37;100050.31;6174834;23;20009;-81
2021/04/29 11:03:17;;;;;;;0.95;0.95;;;;;;;14.39;36.08;100057.41;6149287;23;20036;-80
2021/04/29 11:05:41;;;;;;;1.00;0.90;;;;;;;14.21;36.97;100068.16;6177412;23;20074;-77
2021/04/29 11:08:09;;;;;;;1.23;1.13;;;;;;;14.17;36.98;100063.56;6197988;23;19993;-77
2021/04/29 11:11:20;;;;;;;;;;;;;;;;;;;;;
2021/04/29 11:14:40;;;;;;;2.05;1.05;;;;;;;14.36;37.17;100058.81;6184126;23;20032;-83
2021/04/29 11:17:26;;;;;;;1.30;1.20;;;;;;;14.73;37.55;100051.59;6180000;23;20021;-81
2021/04/29 11:19:57;;;;;;;1.65;0.90;;;;;;;17.15;40.50;100062.69;6179913;23;20028;-80
2021/04/29 11:22:34;;;;;;;6.47;0.95;;;;;;;18.80;36.29;100072.25;6181757;23;20001;-82
2021/04/29 11:28:02;;;;;;;2.80;0.85;;;;;;;18.99;31.85;100057.25;6182107;23;19993;-81
2021/04/29 11:30:28;;;;;;;1.83;1.05;;;;;;;18.55;30.45;100060.09;6172699;23;20043;-81
2021/04/29 11:32:55;;;;;;;1.05;1.00;;;;;;;18.11;30.40;100081.47;6172051;23;20013;-81
2021/04/29 11:35:49;;;;;;;1.08;0.98;;;;;;;17.61;30.99;100077.16;6171714;23;20008;-82
2021/04/29 11:38:15;;;;;;;1.00;1.00;;;;;;;16.89;31.38;100052.38;6166463;23;20044;-81
2021/04/29 11:40:41;;;;;;;2.33;1.05;;;;;;;16.68;32.19;100078.84;6199612;23;20058;-82
2021/04/29 11:43:15;;;;;;;1.85;1.35;;;;;;;16.33;32.75;100059.31;6174098;23;20057;-82
2021/04/29 11:45:47;;;;;;;8.25;1.70;;;;;;;16.15;32.76;100070.19;6171547;23;20020;-83
2021/04/29 11:48:24;;;;;;;;;;;;;;;;;;;;;
2021/04/29 11:51:11;;;;;;;1.15;0.80;;;;;;;15.93;33.64;100053.63;6196698;23;19989;-82
2021/04/29 11:53:41;;;;;;;0.63;0.45;;;;;;;16.12;33.76;100079.09;6200023;23;20025;-81
2021/04/29 11:56:19;;;;;;;0.40;0.40;;;;;;;16.14;34.29;100059.47;6166301;23;20017;-80
2021/04/29 11:59:02;;;;;;;4.10;1.02;;;;;;;16.45;33.34;100084.38;6172936;23;20060;-82
2021/04/29 12:01:35;;;;;;;1.02;0.90;;;;;;;16.51;34.01;100047.22;6172115;23;20001;-81
2021/04/29 12:04:18;;;;;;;0.65;0.47;;;;;;;17.19;34.40;100041.59;6148974;23;20016;-81
2021/04/29 12:07:26;;;;;;;1.75;1.08;;;;;;;18.94;33.11;100077.63;6169263;23;20424;-81
2021/04/29 12:09:53;;;;;;;0.95;0.32;;;;;;;20.98;34.57;100052.44;6108287;23;20042;-82
2021/04/29 12:12:22;;;;;;;0.93;0.55;;;;;;;23.52;33.02;100082.47;6171194;23;19989;-81
2021/04/29 12:14:58;;;;;;;0.22;0.22;;;;;;;25.55;31.39;100054.50;6154471;23;20051;-83
2021/04/29 12:17:25;;;;;;;;;;;;;;;27.97;27.91;100080.25;6159580;23;20008;-80
2021/04/29 12:20:15;;;;;;;0.40;0.32;;;;;;;27.97;27.21;100062.56;6183939;23;19888;-82
2021/04/29 12:22:41;;;;;;;0.60;0.47;;;;;;;28.12;24.30;100069.09;6205855;23;19993;-83
2021/04/29 12:25:25;;;;;;;0.30;0.30;;;;;;;28.11;23.47;100073.09;6176830;23;20000;-82
2021/04/29 12:27:50;;;;;;;0.28;0.28;;;;;;;28.54;24.24;100074.03;6200574;23;20016;-82
2021/04/29 12:30:26;;;;;;;0.32;0.32;;;;;;;28.52;22.87;100064.41;6171605;23;20013;-82
2021/04/29 12:32:51;;;;;;;0.30;0.30;;;;;;;29.77;21.15;100074.13;6174241;23;20095;-83
2021/04/29 12:35:43;;;;;;;0.40;0.40;;;;;;;31.13;20.55;100067.06;6174026;23;20009;-82
2021/04/29 12:38:12;;;;;;;0.40;0.40;;;;;;;32.06;16.83;100067.34;6173059;23;19989;-81
2021/04/29 12:40:47;;;;;;;0.40;0.30;;;;;;;31.30;16.50;100070.13;6177206;23;20098;-82
2021/04/29 12:43:17;;;;;;;0.40;0.40;;;;;;;30.02;16.34;100076.09;6177945;23;20001;-83
2021/04/29 12:45:43;;;;;;;0.43;0.43;;;;;;;28.67;16.98;100062.47;6177747;23;20000;-82
2021/04/29 12:48:34;;;;;;;;;;;;;;;;;;;;;
2021/04/29 12:51:21;;;;;;;0.50;0.50;;;;;;;25.99;17.79;100060.69;6203556;23;20008;-84
2021/04/29 12:54:02;;;;;;;0.60;0.60;;;;;;;24.81;18.36;100072.44;6203801;23;20132;-83
2021/04/29 12:56:33;;;;;;;0.90;0.90;;;;;;;23.34;19.54;100058.91;6202105;23;20056;-81
2021/04/29 12:59:20;;;;;;;;;;;;;;;;;;;;;
2021/04/29 13:01:48;;;;;;;1.10;1.05;;;;;;;20.95;21.82;100061.50;6202696;23;20008;-80
2021/04/29 13:04:25;;;;;;;0.85;0.82;;;;;;;20.11;22.71;100062.47;6176636;23;20088;-81
2021/04/29 13:07:06;;;;;;;2.20;1.27;;;;;;;19.37;23.38;100048.09;6198748;23;20008;-80
2021/04/29 13:09:35;;;;;;;0.73;0.73;;;;;;;18.98;24.20;100067.53;6173180;23;20019;-80
2021/04/29 13:12:13;;;;;;;0.77;0.77;;;;;;;18.49;24.16;100059.47;6173994;23;20005;-81
2021/04/29 13:14:41;;;;;;;1.30;1.20;;;;;;;18.26;24.58;100067.13;6174510;23;20005;-80
2021/04/29 13:17:59;;;;;;;0.75;0.75;;;;;;;18.03;25.17;100065.69;6174685;23;20005;-84
2021/04/29 13:20:32;;;;;;;0.80;0.80;;;;;;;17.94;25.81;100063.72;6175900;23;19996;-77
2021/04/29 13:23:00;;;;;;;0.60;0.60;;;;;;;18.03;25.70;100063.72;6178070;23;20065;-83
2021/04/29 13:26:06;;;;;;;1.30;0.68;;;;;;;18.33;25.94;100052.00;6152069;23;20009;-82
2021/04/29 13:28:37;;;;;;;0.73;0.73;;;;;;;18.67;25.90;100046.41;6204423;23;20480;-80
2021/04/29 13:31:08;;;;;;;0.70;0.40;;;;;;;19.36;25.88;100055.59;6178634;23;20005;-79
2021/04/29 13:33:52;;;;;;;0.57;0.52;;;;;;;20.10;25.18;100032.28;6153807;23;20021;-83
2021/04/29 13:36:31;;;;;;;1.23;0.45;;;;;;;21.06;25.54;100067.44;6184643;23;20043;-83
2021/04/29 13:38:57;;;;;;;0.10;0.10;;;;;;;21.72;25.22;100060.81;6184177;23;20073;-81
2021/04/29 13:41:25;;;;;;;0.85;0.20;;;;;;;22.58;24.82;100050.59;6181972;23;20191;-83